Aeroporto :







RITROVATECI SU...

 
LOGIN :

Iscrizione | Disclaimer

   EN    FR    IT 

 









Sommario :    VFR   VFR Marginale   IFR   IFR Intensivo   IFR Molto Intensivo
Visibilità : 
Base nubi : 
>= 8 km
>= 3000ft
5 / 8 km
1000 / 3000 ft
1500m / 5 km
500 / 1000 ft
800 / 1500m
200 / 500 ft
< 800m
< 200 ft
Simboli :   Temporali  Nebbia  Neve Forte  Precipitazioni Forti  Vento > 20 kt






- Altitudine del aeroporto : 1709 ft
- Codice IATA : YKL


CYKL - Schefferville

ULTIMO METAR :
  • 270000Z AUTO 33005KT 300V010 9SM OVC030 03/M02 A3013 RMK SLP230

METARs OBSOLETI :
  • 262300Z AUTO 33011KT 9SM OVC032 04/M02 A3012 RMK SLP226
  • 262200Z AUTO 32010G17KT 9SM OVC034 05/M02 A3009 RMK SLP215

TAF TAF CYKL
Valido dal 26 a 20 ore il 27 a 08 ore UTC


261930Z 2620/2708 29012G22KT P6SM BKN030
BECMG 2700/2702 31008KT
BECMG 2705/2707 VRB03KT RMK FCST BASED ON AUTO OBS. NXT FCST BY 270200Z
FIR CZUL / America del Nord



MetMap, La meteo Aeronautica in un colpo d'occhio ! - Copyright ORBIFLY Dicembre 2007 - Disclaimer

ORBIFLY MET'MAP TEAM :

Programmazione e sviluppo : Alexandra Zaïnal
Concezione : Baudouin d'Aumeries
Aiuto per la programmazione : Marc-Olivier Méhu
Supporto tecnico e logistico : Manuel Goepfert
Aiuto per la traduzione : Arnaldo La Scala

Contatto : metmap@orbifly.com




FONTI E CREDITI :

   NOAA